sensor_id;sensor_type;location;lat;lon;timestamp;pressure;altitude;pressure_sealevel;temperature;humidity
55032;BME280;40928;51.076;7.950;2023-02-18T00:01:12;97635.13;;;7.99;100.00
55032;BME280;40928;51.076;7.950;2023-02-18T00:03:38;97638.78;;;7.98;100.00
55032;BME280;40928;51.076;7.950;2023-02-18T00:06:25;97638.78;;;7.98;100.00
55032;BME280;40928;51.076;7.950;2023-02-18T00:08:51;97647.19;;;7.95;100.00
55032;BME280;40928;51.076;7.950;2023-02-18T00:11:19;97634.50;;;7.97;100.00
55032;BME280;40928;51.076;7.950;2023-02-18T00:14:11;97629.63;;;7.94;100.00
55032;BME280;40928;51.076;7.950;2023-02-18T00:16:38;97625.09;;;7.95;100.00
55032;BME280;40928;51.076;7.950;2023-02-18T00:19:05;97621.03;;;7.92;100.00
55032;BME280;40928;51.076;7.950;2023-02-18T00:21:33;97621.22;;;7.90;100.00
55032;BME280;40928;51.076;7.950;2023-02-18T00:23:59;97612.03;;;7.93;100.00
55032;BME280;40928;51.076;7.950;2023-02-18T00:26:25;97621.41;;;7.96;100.00
55032;BME280;40928;51.076;7.950;2023-02-18T00:28:54;97612.81;;;7.93;100.00
55032;BME280;40928;51.076;7.950;2023-02-18T00:31:23;97609.78;;;7.90;100.00
55032;BME280;40928;51.076;7.950;2023-02-18T00:33:50;97614.06;;;7.91;100.00
55032;BME280;40928;51.076;7.950;2023-02-18T00:36:18;97619.16;;;7.92;100.00
55032;BME280;40928;51.076;7.950;2023-02-18T00:38:50;97622.03;;;7.91;100.00
55032;BME280;40928;51.076;7.950;2023-02-18T00:41:17;97614.69;;;7.93;100.00
55032;BME280;40928;51.076;7.950;2023-02-18T00:43:43;97618.97;;;7.94;100.00
55032;BME280;40928;51.076;7.950;2023-02-18T00:46:09;97609.94;;;7.95;100.00
55032;BME280;40928;51.076;7.950;2023-02-18T00:48:35;97611.41;;;7.98;100.00
55032;BME280;40928;51.076;7.950;2023-02-18T00:51:04;97619.56;;;7.96;100.00
55032;BME280;40928;51.076;7.950;2023-02-18T00:53:30;97613.22;;;7.90;100.00
55032;BME280;40928;51.076;7.950;2023-02-18T00:55:56;97606.88;;;7.98;100.00
55032;BME280;40928;51.076;7.950;2023-02-18T00:58:22;97609.75;;;7.97;100.00
55032;BME280;40928;51.076;7.950;2023-02-18T01:00:48;97602.81;;;7.96;100.00
55032;BME280;40928;51.076;7.950;2023-02-18T01:03:14;97594.44;;;7.92;100.00
55032;BME280;40928;51.076;7.950;2023-02-18T01:05:41;97576.81;;;7.98;100.00
55032;BME280;40928;51.076;7.950;2023-02-18T01:08:09;97581.31;;;7.97;100.00
55032;BME280;40928;51.076;7.950;2023-02-18T01:10:40;97566.19;;;7.91;100.00
55032;BME280;40928;51.076;7.950;2023-02-18T01:13:29;97578.06;;;7.88;100.00
55032;BME280;40928;51.076;7.950;2023-02-18T01:15:59;97579.50;;;7.91;100.00
55032;BME280;40928;51.076;7.950;2023-02-18T01:18:25;97586.00;;;7.95;100.00
55032;BME280;40928;51.076;7.950;2023-02-18T01:20:51;97587.88;;;7.95;100.00
55032;BME280;40928;51.076;7.950;2023-02-18T01:23:17;97583.38;;;7.88;100.00
55032;BME280;40928;51.076;7.950;2023-02-18T01:25:43;97576.84;;;7.84;100.00
55032;BME280;40928;51.076;7.950;2023-02-18T01:28:10;97569.47;;;7.80;100.00
55032;BME280;40928;51.076;7.950;2023-02-18T01:30:36;97582.75;;;7.80;100.00
55032;BME280;40928;51.076;7.950;2023-02-18T01:33:03;97572.34;;;7.85;100.00
55032;BME280;40928;51.076;7.950;2023-02-18T01:35:29;97581.16;;;7.85;100.00
55032;BME280;40928;51.076;7.950;2023-02-18T01:37:55;97568.66;;;7.86;100.00
55032;BME280;40928;51.076;7.950;2023-02-18T01:40:24;97565.59;;;7.82;100.00
55032;BME280;40928;51.076;7.950;2023-02-18T01:42:50;97570.50;;;7.78;100.00
55032;BME280;40928;51.076;7.950;2023-02-18T01:48:10;97567.25;;;7.76;100.00
55032;BME280;40928;51.076;7.950;2023-02-18T01:50:44;97576.03;;;7.84;100.00
55032;BME280;40928;51.076;7.950;2023-02-18T01:53:14;97572.34;;;7.85;100.00
55032;BME280;40928;51.076;7.950;2023-02-18T01:55:40;97581.34;;;7.84;100.00
55032;BME280;40928;51.076;7.950;2023-02-18T01:58:06;97561.91;;;7.90;100.00
55032;BME280;40928;51.076;7.950;2023-02-18T02:00:32;97563.94;;;7.88;100.00
55032;BME280;40928;51.076;7.950;2023-02-18T02:02:58;97567.03;;;7.85;100.00
55032;BME280;40928;51.076;7.950;2023-02-18T02:05:23;97551.47;;;7.88;100.00
55032;BME280;40928;51.076;7.950;2023-02-18T02:07:51;97557.00;;;7.87;100.00
55032;BME280;40928;51.076;7.950;2023-02-18T02:10:19;97558.44;;;7.83;100.00
55032;BME280;40928;51.076;7.950;2023-02-18T02:15:48;97545.34;;;7.88;100.00
55032;BME280;40928;51.076;7.950;2023-02-18T02:18:42;97545.13;;;7.83;100.00
55032;BME280;40928;51.076;7.950;2023-02-18T02:27:28;97539.44;;;7.79;100.00
55032;BME280;40928;51.076;7.950;2023-02-18T02:35:37;97531.84;;;7.76;100.00
55032;BME280;40928;51.076;7.950;2023-02-18T02:41:11;97530.44;;;7.80;100.00
55032;BME280;40928;51.076;7.950;2023-02-18T02:54:25;97526.34;;;7.77;100.00
55032;BME280;40928;51.076;7.950;2023-02-18T02:59:35;97528.78;;;7.79;100.00
55032;BME280;40928;51.076;7.950;2023-02-18T03:15:22;97507.94;;;7.69;100.00
55032;BME280;40928;51.076;7.950;2023-02-18T03:18:00;97507.53;;;7.72;100.00
55032;BME280;40928;51.076;7.950;2023-02-18T03:20:56;97496.91;;;7.72;100.00
55032;BME280;40928;51.076;7.950;2023-02-18T03:23:33;97504.88;;;7.72;100.00
55032;BME280;40928;51.076;7.950;2023-02-18T03:26:03;97505.91;;;7.71;100.00
55032;BME280;40928;51.076;7.950;2023-02-18T03:28:31;97504.28;;;7.70;100.00
55032;BME280;40928;51.076;7.950;2023-02-18T03:31:06;97501.00;;;7.68;100.00
55032;BME280;40928;51.076;7.950;2023-02-18T03:33:38;97501.63;;;7.70;100.00
55032;BME280;40928;51.076;7.950;2023-02-18T03:36:05;97500.56;;;7.78;100.00
55032;BME280;40928;51.076;7.950;2023-02-18T03:38:38;97490.34;;;7.75;100.00
55032;BME280;40928;51.076;7.950;2023-02-18T03:41:05;97486.47;;;7.77;100.00
55032;BME280;40928;51.076;7.950;2023-02-18T03:43:33;97485.88;;;7.75;100.00
55032;BME280;40928;51.076;7.950;2023-02-18T03:45:59;97482.19;;;7.76;100.00
55032;BME280;40928;51.076;7.950;2023-02-18T03:48:25;97485.88;;;7.75;100.00
55032;BME280;40928;51.076;7.950;2023-02-18T03:50:51;97483.63;;;7.72;100.00
55032;BME280;40928;51.076;7.950;2023-02-18T03:53:16;97476.88;;;7.76;100.00
55032;BME280;40928;51.076;7.950;2023-02-18T03:55:42;97470.53;;;7.77;100.00
55032;BME280;40928;51.076;7.950;2023-02-18T03:58:08;97469.91;;;7.75;100.00
55032;BME280;40928;51.076;7.950;2023-02-18T04:00:33;97466.81;;;7.78;100.00
55032;BME280;40928;51.076;7.950;2023-02-18T04:02:59;97463.13;;;7.80;100.00
55032;BME280;40928;51.076;7.950;2023-02-18T04:05:24;97462.31;;;7.79;100.00
55032;BME280;40928;51.076;7.950;2023-02-18T04:07:50;97464.59;;;7.75;100.00
55032;BME280;40928;51.076;7.950;2023-02-18T04:10:16;97456.78;;;7.81;100.00
55032;BME280;40928;51.076;7.950;2023-02-18T04:12:41;97454.56;;;7.77;100.00
55032;BME280;40928;51.076;7.950;2023-02-18T04:15:07;97456.00;;;7.73;100.00
55032;BME280;40928;51.076;7.950;2023-02-18T04:17:33;97457.84;;;7.73;100.00
55032;BME280;40928;51.076;7.950;2023-02-18T04:19:59;97450.09;;;7.71;100.00
55032;BME280;40928;51.076;7.950;2023-02-18T04:22:25;97450.09;;;7.71;100.00
55032;BME280;40928;51.076;7.950;2023-02-18T04:24:50;97438.63;;;7.71;100.00
55032;BME280;40928;51.076;7.950;2023-02-18T04:27:18;97436.38;;;7.74;100.00
55032;BME280;40928;51.076;7.950;2023-02-18T04:29:44;97436.72;;;7.85;100.00
55032;BME280;40928;51.076;7.950;2023-02-18T04:32:10;97433.69;;;7.81;100.00
55032;BME280;40928;51.076;7.950;2023-02-18T04:34:35;97443.50;;;7.81;100.00
55032;BME280;40928;51.076;7.950;2023-02-18T04:37:01;97430.41;;;7.79;100.00
55032;BME280;40928;51.076;7.950;2023-02-18T04:39:27;97431.63;;;7.83;100.00
55032;BME280;40928;51.076;7.950;2023-02-18T04:41:53;97428.56;;;7.80;100.00
55032;BME280;40928;51.076;7.950;2023-02-18T04:44:19;97418.97;;;7.78;100.00
55032;BME280;40928;51.076;7.950;2023-02-18T04:46:45;97410.56;;;7.82;100.00
55032;BME280;40928;51.076;7.950;2023-02-18T04:49:10;97404.06;;;7.77;100.00
55032;BME280;40928;51.076;7.950;2023-02-18T04:51:36;97406.06;;;7.82;100.00
55032;BME280;40928;51.076;7.950;2023-02-18T04:54:03;97413.00;;;7.90;100.00
55032;BME280;40928;51.076;7.950;2023-02-18T04:56:28;97400.97;;;7.81;100.00
55032;BME280;40928;51.076;7.950;2023-02-18T04:58:54;97400.34;;;7.85;100.00
55032;BME280;40928;51.076;7.950;2023-02-18T05:01:20;97393.16;;;7.86;100.00
55032;BME280;40928;51.076;7.950;2023-02-18T05:03:45;97400.97;;;7.81;100.00
55032;BME280;40928;51.076;7.950;2023-02-18T05:06:11;97389.56;;;7.73;100.00
55032;BME280;40928;51.076;7.950;2023-02-18T05:08:37;97393.81;;;7.81;100.00
55032;BME280;40928;51.076;7.950;2023-02-18T05:11:08;97382.78;;;7.77;100.00
55032;BME280;40928;51.076;7.950;2023-02-18T05:13:35;97377.03;;;7.81;100.00
55032;BME280;40928;51.076;7.950;2023-02-18T05:16:03;97378.06;;;7.80;100.00
55032;BME280;40928;51.076;7.950;2023-02-18T05:18:29;97374.59;;;7.79;100.00
55032;BME280;40928;51.076;7.950;2023-02-18T05:20:54;97380.28;;;7.83;100.00
55032;BME280;40928;51.076;7.950;2023-02-18T05:23:20;97372.75;;;7.80;100.00
55032;BME280;40928;51.076;7.950;2023-02-18T05:25:47;97370.94;;;7.73;100.00
55032;BME280;40928;51.076;7.950;2023-02-18T05:28:16;97370.94;;;7.73;100.00
55032;BME280;40928;51.076;7.950;2023-02-18T05:30:42;97364.19;;;7.71;100.00
55032;BME280;40928;51.076;7.950;2023-02-18T05:33:08;97374.00;;;7.77;100.00
55032;BME280;40928;51.076;7.950;2023-02-18T05:35:35;97364.97;;;7.78;100.00
55032;BME280;40928;51.076;7.950;2023-02-18T05:38:02;97358.03;;;7.77;100.00
55032;BME280;40928;51.076;7.950;2023-02-18T05:40:28;97360.91;;;7.75;100.00
55032;BME280;40928;51.076;7.950;2023-02-18T05:42:54;97352.53;;;7.72;100.00
55032;BME280;40928;51.076;7.950;2023-02-18T05:45:19;97339.84;;;7.74;100.00
55032;BME280;40928;51.076;7.950;2023-02-18T05:47:45;97339.66;;;7.75;100.00
55032;BME280;40928;51.076;7.950;2023-02-18T05:50:11;97337.19;;;7.74;100.00
55032;BME280;40928;51.076;7.950;2023-02-18T05:52:44;97335.78;;;7.71;100.00
55032;BME280;40928;51.076;7.950;2023-02-18T05:55:10;97331.06;;;7.73;100.00
55032;BME280;40928;51.076;7.950;2023-02-18T05:57:36;97329.63;;;7.71;100.00
55032;BME280;40928;51.076;7.950;2023-02-18T06:00:03;97340.03;;;7.79;100.00
55032;BME280;40928;51.076;7.950;2023-02-18T06:02:30;97339.66;;;7.75;100.00
55032;BME280;40928;51.076;7.950;2023-02-18T06:04:55;97341.69;;;7.73;100.00
55032;BME280;40928;51.076;7.950;2023-02-18T06:07:21;97339.47;;;7.70;100.00
55032;BME280;40928;51.076;7.950;2023-02-18T06:09:47;97332.66;;;7.81;100.00
55032;BME280;40928;51.076;7.950;2023-02-18T06:12:13;97326.97;;;7.77;100.00
55032;BME280;40928;51.076;7.950;2023-02-18T06:14:39;97328.75;;;7.84;100.00
55032;BME280;40928;51.076;7.950;2023-02-18T06:17:08;97326.56;;;7.74;100.00
55032;BME280;40928;51.076;7.950;2023-02-18T06:19:34;97324.50;;;7.76;100.00
55032;BME280;40928;51.076;7.950;2023-02-18T06:22:03;97313.06;;;7.75;100.00
55032;BME280;40928;51.076;7.950;2023-02-18T06:24:29;97313.25;;;7.74;100.00
55032;BME280;40928;51.076;7.950;2023-02-18T06:26:55;97304.88;;;7.77;100.00
55032;BME280;40928;51.076;7.950;2023-02-18T06:29:22;97315.72;;;7.75;100.00
55032;BME280;40928;51.076;7.950;2023-02-18T06:31:47;97301.81;;;7.73;100.00
55032;BME280;40928;51.076;7.950;2023-02-18T06:34:13;97302.59;;;7.81;100.00
55032;BME280;40928;51.076;7.950;2023-02-18T06:36:39;97308.97;;;7.73;100.00
55032;BME280;40928;51.076;7.950;2023-02-18T06:39:05;97301.22;;;7.71;100.00
55032;BME280;40928;51.076;7.950;2023-02-18T06:41:31;97301.22;;;7.71;100.00
55032;BME280;40928;51.076;7.950;2023-02-18T06:43:57;97297.72;;;7.77;100.00
55032;BME280;40928;51.076;7.950;2023-02-18T06:46:23;97303.28;;;7.69;100.00
55032;BME280;40928;51.076;7.950;2023-02-18T06:48:49;97299.59;;;7.70;100.00
55032;BME280;40928;51.076;7.950;2023-02-18T06:51:15;97298.75;;;7.76;100.00
55032;BME280;40928;51.076;7.950;2023-02-18T06:53:41;97299.16;;;7.73;100.00
55032;BME280;40928;51.076;7.950;2023-02-18T06:56:08;97290.16;;;7.74;100.00
55032;BME280;40928;51.076;7.950;2023-02-18T06:58:34;97290.78;;;7.76;100.00
55032;BME280;40928;51.076;7.950;2023-02-18T07:01:00;97295.91;;;7.71;100.00
55032;BME280;40928;51.076;7.950;2023-02-18T07:03:26;97285.28;;;7.71;100.00
55032;BME280;40928;51.076;7.950;2023-02-18T07:05:52;97288.16;;;7.70;100.00
55032;BME280;40928;51.076;7.950;2023-02-18T07:08:18;97288.72;;;7.72;100.00
55032;BME280;40928;51.076;7.950;2023-02-18T07:10:43;97281.59;;;7.72;100.00
55032;BME280;40928;51.076;7.950;2023-02-18T07:13:09;97286.69;;;7.74;100.00
55032;BME280;40928;51.076;7.950;2023-02-18T07:15:35;97279.56;;;7.68;100.00
55032;BME280;40928;51.076;7.950;2023-02-18T07:18:01;97288.56;;;7.67;100.00
55032;BME280;40928;51.076;7.950;2023-02-18T07:20:27;97273.06;;;7.64;100.00
55032;BME280;40928;51.076;7.950;2023-02-18T07:22:53;97285.47;;;7.76;100.00
55032;BME280;40928;51.076;7.950;2023-02-18T07:25:19;97293.44;;;7.76;100.00
55032;BME280;40928;51.076;7.950;2023-02-18T07:27:45;97289.56;;;7.72;100.00
55032;BME280;40928;51.076;7.950;2023-02-18T07:30:11;97297.50;;;7.79;100.00
55032;BME280;40928;51.076;7.950;2023-02-18T07:32:37;97300.34;;;7.84;100.00
55032;BME280;40928;51.076;7.950;2023-02-18T07:35:04;97296.66;;;7.85;100.00
55032;BME280;40928;51.076;7.950;2023-02-18T07:37:31;97288.22;;;7.88;100.00
55032;BME280;40928;51.076;7.950;2023-02-18T07:39:57;97304.81;;;7.84;100.00
55032;BME280;40928;51.076;7.950;2023-02-18T07:42:22;97305.84;;;7.83;100.00
55032;BME280;40928;51.076;7.950;2023-02-18T07:44:48;97309.34;;;7.83;100.00
55032;BME280;40928;51.076;7.950;2023-02-18T07:47:15;97303.47;;;7.74;100.00
55032;BME280;40928;51.076;7.950;2023-02-18T07:49:43;97311.84;;;7.71;100.00
55032;BME280;40928;51.076;7.950;2023-02-18T07:52:09;97311.84;;;7.71;100.00
55032;BME280;40928;51.076;7.950;2023-02-18T07:54:34;97308.38;;;7.71;100.00
55032;BME280;40928;51.076;7.950;2023-02-18T07:57:00;97297.13;;;7.75;100.00
55032;BME280;40928;51.076;7.950;2023-02-18T07:59:26;97306.53;;;7.71;100.00
55032;BME280;40928;51.076;7.950;2023-02-18T08:01:52;97311.63;;;7.73;100.00
55032;BME280;40928;51.076;7.950;2023-02-18T08:04:18;97310.22;;;7.70;100.00
55032;BME280;40928;51.076;7.950;2023-02-18T08:06:46;97313.53;;;7.66;100.00
55032;BME280;40928;51.076;7.950;2023-02-18T08:09:13;97300.44;;;7.64;100.00
55032;BME280;40928;51.076;7.950;2023-02-18T08:11:39;97307.19;;;7.67;100.00
55032;BME280;40928;51.076;7.950;2023-02-18T08:14:05;97325.22;;;7.58;100.00
55032;BME280;40928;51.076;7.950;2023-02-18T08:16:31;97318.88;;;7.59;100.00
55032;BME280;40928;51.076;7.950;2023-02-18T08:18:57;97311.28;;;7.62;100.00
55032;BME280;40928;51.076;7.950;2023-02-18T08:21:24;97309.44;;;7.63;100.00
55032;BME280;40928;51.076;7.950;2023-02-18T08:23:51;97317.84;;;7.60;100.00
55032;BME280;40928;51.076;7.950;2023-02-18T08:26:17;97317.84;;;7.60;100.00
55032;BME280;40928;51.076;7.950;2023-02-18T08:28:44;97324.56;;;7.62;100.00
55032;BME280;40928;51.076;7.950;2023-02-18T08:31:19;97319.69;;;7.59;100.00
55032;BME280;40928;51.076;7.950;2023-02-18T08:33:45;97317.84;;;7.60;100.00
55032;BME280;40928;51.076;7.950;2023-02-18T08:36:11;97340.91;;;7.66;100.00
55032;BME280;40928;51.076;7.950;2023-02-18T08:38:37;97343.00;;;7.57;100.00
55032;BME280;40928;51.076;7.950;2023-02-18T08:41:04;97342.38;;;7.55;100.00
55032;BME280;40928;51.076;7.950;2023-02-18T08:43:31;97348.75;;;7.54;100.00
55032;BME280;40928;51.076;7.950;2023-02-18T08:45:57;97347.50;;;7.57;100.00
55032;BME280;40928;51.076;7.950;2023-02-18T08:48:24;97350.34;;;7.62;100.00
55032;BME280;40928;51.076;7.950;2023-02-18T08:50:50;97351.19;;;7.56;100.00
55032;BME280;40928;51.076;7.950;2023-02-18T08:53:16;97354.03;;;7.61;100.00
55032;BME280;40928;51.076;7.950;2023-02-18T08:55:42;97351.16;;;7.62;100.00
55032;BME280;40928;51.076;7.950;2023-02-18T08:58:08;97336.47;;;7.60;100.00
55032;BME280;40928;51.076;7.950;2023-02-18T09:00:35;97320.53;;;7.53;100.00
55032;BME280;40928;51.076;7.950;2023-02-18T09:03:04;97336.69;;;7.52;100.00
55032;BME280;40928;51.076;7.950;2023-02-18T09:05:30;97337.72;;;7.51;100.00
55032;BME280;40928;51.076;7.950;2023-02-18T09:07:56;97340.63;;;7.42;100.00
55032;BME280;40928;51.076;7.950;2023-02-18T09:10:22;97357.19;;;7.38;100.00
55032;BME280;40928;51.076;7.950;2023-02-18T09:12:48;97361.00;;;7.49;100.00
55032;BME280;40928;51.076;7.950;2023-02-18T09:15:13;97366.94;;;7.51;100.00
55032;BME280;40928;51.076;7.950;2023-02-18T09:17:39;97365.34;;;7.43;100.00
55032;BME280;40928;51.076;7.950;2023-02-18T09:20:05;97372.28;;;7.44;100.00
55032;BME280;40928;51.076;7.950;2023-02-18T09:22:32;97355.53;;;7.43;100.00
55032;BME280;40928;51.076;7.950;2023-02-18T09:24:58;97376.75;;;7.50;100.00
55032;BME280;40928;51.076;7.950;2023-02-18T09:27:23;97381.22;;;7.56;100.00
55032;BME280;40928;51.076;7.950;2023-02-18T09:29:49;97367.78;;;7.44;100.00
55032;BME280;40928;51.076;7.950;2023-02-18T09:32:16;97363.91;;;7.40;100.00
55032;BME280;40928;51.076;7.950;2023-02-18T09:34:43;97362.66;;;7.43;100.00
55032;BME280;40928;51.076;7.950;2023-02-18T09:37:09;97362.25;;;7.46;100.00
55032;BME280;40928;51.076;7.950;2023-02-18T09:39:35;97355.59;;;7.30;100.00
55032;BME280;40928;51.076;7.950;2023-02-18T09:42:04;97368.47;;;7.20;100.00
55032;BME280;40928;51.076;7.950;2023-02-18T09:44:41;97351.75;;;7.12;100.00
55032;BME280;40928;51.076;7.950;2023-02-18T09:50:27;97335.00;;;7.05;100.00
55032;BME280;40928;51.076;7.950;2023-02-18T09:52:58;97349.34;;;6.91;100.00
55032;BME280;40928;51.076;7.950;2023-02-18T09:55:32;97341.75;;;6.94;100.00
55032;BME280;40928;51.076;7.950;2023-02-18T09:58:24;97334.63;;;6.95;100.00
55032;BME280;40928;51.076;7.950;2023-02-18T10:01:39;97330.53;;;6.85;100.00
55032;BME280;40928;51.076;7.950;2023-02-18T10:04:32;97319.13;;;6.78;100.00
55032;BME280;40928;51.076;7.950;2023-02-18T10:07:07;97324.84;;;6.82;100.00
55032;BME280;40928;51.076;7.950;2023-02-18T10:09:39;97324.63;;;6.97;100.00
55032;BME280;40928;51.076;7.950;2023-02-18T10:12:28;97329.16;;;6.76;100.00
55032;BME280;40928;51.076;7.950;2023-02-18T10:15:02;97308.91;;;6.82;100.00
55032;BME280;40928;51.076;7.950;2023-02-18T10:17:31;97318.53;;;6.76;100.00
55032;BME280;40928;51.076;7.950;2023-02-18T10:20:05;97318.13;;;6.79;100.00
55032;BME280;40928;51.076;7.950;2023-02-18T10:22:39;97308.13;;;6.81;100.00
55032;BME280;40928;51.076;7.950;2023-02-18T10:25:16;97308.28;;;6.86;100.00
55032;BME280;40928;51.076;7.950;2023-02-18T10:27:52;97312.19;;;6.84;100.00
55032;BME280;40928;51.076;7.950;2023-02-18T10:30:30;97315.84;;;6.83;100.00
55032;BME280;40928;51.076;7.950;2023-02-18T10:36:42;97300.56;;;6.78;100.00
55032;BME280;40928;51.076;7.950;2023-02-18T10:39:25;97294.44;;;6.84;100.00
55032;BME280;40928;51.076;7.950;2023-02-18T10:50:49;97294.59;;;6.90;100.00
55032;BME280;40928;51.076;7.950;2023-02-18T10:53:59;97299.13;;;6.89;100.00
55032;BME280;40928;51.076;7.950;2023-02-18T10:56:48;97289.53;;;6.81;100.00
55032;BME280;40928;51.076;7.950;2023-02-18T10:59:24;97286.88;;;6.81;100.00
55032;BME280;40928;51.076;7.950;2023-02-18T11:02:12;97285.22;;;6.87;100.00
55032;BME280;40928;51.076;7.950;2023-02-18T11:04:44;97273.59;;;6.88;100.00
55032;BME280;40928;51.076;7.950;2023-02-18T11:07:22;97288.28;;;6.91;100.00
55032;BME280;40928;51.076;7.950;2023-02-18T11:10:31;97294.81;;;6.95;100.00
55032;BME280;40928;51.076;7.950;2023-02-18T11:13:01;97308.13;;;6.81;100.00
55032;BME280;40928;51.076;7.950;2023-02-18T11:15:35;97302.56;;;6.90;100.00
55032;BME280;40928;51.076;7.950;2023-02-18T11:21:39;97310.34;;;6.84;100.00
55032;BME280;40928;51.076;7.950;2023-02-18T11:24:19;97300.75;;;6.83;100.00
55032;BME280;40928;51.076;7.950;2023-02-18T11:26:48;97301.34;;;6.85;100.00
55032;BME280;40928;51.076;7.950;2023-02-18T11:29:24;97297.28;;;6.83;100.00
55032;BME280;40928;51.076;7.950;2023-02-18T11:31:57;97302.97;;;6.93;100.00
55032;BME280;40928;51.076;7.950;2023-02-18T11:34:32;97301.53;;;6.97;100.00
55032;BME280;40928;51.076;7.950;2023-02-18T11:37:17;97299.91;;;6.96;100.00
55032;BME280;40928;51.076;7.950;2023-02-18T11:39:54;97306.19;;;7.02;100.00
55032;BME280;40928;51.076;7.950;2023-02-18T11:42:25;97312.94;;;7.11;100.00
55032;BME280;40928;51.076;7.950;2023-02-18T11:44:58;97302.53;;;7.03;100.00
55032;BME280;40928;51.076;7.950;2023-02-18T11:47:32;97309.25;;;7.12;100.00
55032;BME280;40928;51.076;7.950;2023-02-18T11:52:41;97302.13;;;7.06;100.00
55032;BME280;40928;51.076;7.950;2023-02-18T11:55:28;97317.03;;;7.07;100.00
55032;BME280;40928;51.076;7.950;2023-02-18T11:58:03;97302.31;;;7.11;100.00
55032;BME280;40928;51.076;7.950;2023-02-18T12:00:49;97313.16;;;7.03;100.00
55032;BME280;40928;51.076;7.950;2023-02-18T12:05:54;97302.28;;;7.18;100.00
55032;BME280;40928;51.076;7.950;2023-02-18T12:08:27;97304.34;;;7.16;100.00
55032;BME280;40928;51.076;7.950;2023-02-18T12:11:01;97303.72;;;7.14;100.00
55032;BME280;40928;51.076;7.950;2023-02-18T12:13:43;97311.88;;;7.26;100.00
55032;BME280;40928;51.076;7.950;2023-02-18T12:24:47;97279.75;;;7.27;100.00
55032;BME280;40928;51.076;7.950;2023-02-18T12:27:42;97289.38;;;7.28;100.00
55032;BME280;40928;51.076;7.950;2023-02-18T12:44:00;97304.63;;;7.40;100.00
55032;BME280;40928;51.076;7.950;2023-02-18T12:47:29;97304.25;;;7.36;100.00
55032;BME280;40928;51.076;7.950;2023-02-18T13:06:58;97312.22;;;7.36;100.00
55032;BME280;40928;51.076;7.950;2023-02-18T13:09:48;97298.72;;;7.44;100.00
55032;BME280;40928;51.076;7.950;2023-02-18T13:17:48;97300.91;;;7.54;100.00
55032;BME280;40928;51.076;7.950;2023-02-18T13:20:36;97304.59;;;7.53;100.00
55032;BME280;40928;51.076;7.950;2023-02-18T13:23:04;97308.69;;;7.49;100.00
55032;BME280;40928;51.076;7.950;2023-02-18T13:25:38;97300.72;;;7.49;100.00
55032;BME280;40928;51.076;7.950;2023-02-18T13:28:26;97307.06;;;7.48;100.00
55032;BME280;40928;51.076;7.950;2023-02-18T13:31:05;97302.97;;;7.52;100.00
55032;BME280;40928;51.076;7.950;2023-02-18T13:33:46;97297.66;;;7.52;100.00
55032;BME280;40928;51.076;7.950;2023-02-18T13:39:17;97295.78;;;7.53;100.00
55032;BME280;40928;51.076;7.950;2023-02-18T13:41:46;97289.03;;;7.57;100.00
55032;BME280;40928;51.076;7.950;2023-02-18T13:46:55;97292.50;;;7.57;100.00
55032;BME280;40928;51.076;7.950;2023-02-18T13:49:30;97293.94;;;7.60;100.00
55032;BME280;40928;51.076;7.950;2023-02-18T13:51:58;97306.63;;;7.58;100.00
55032;BME280;40928;51.076;7.950;2023-02-18T13:54:43;97303.56;;;7.54;100.00
55032;BME280;40928;51.076;7.950;2023-02-18T13:57:21;97304.00;;;7.51;100.00
55032;BME280;40928;51.076;7.950;2023-02-18T13:59:57;97295.59;;;7.47;100.00
55032;BME280;40928;51.076;7.950;2023-02-18T14:02:32;97304.59;;;7.53;100.00
55032;BME280;40928;51.076;7.950;2023-02-18T14:10:23;97293.56;;;7.50;100.00
55032;BME280;40928;51.076;7.950;2023-02-18T14:25:52;97304.03;;;7.44;100.00
55032;BME280;40928;51.076;7.950;2023-02-18T14:28:35;97300.34;;;7.45;100.00
55032;BME280;40928;51.076;7.950;2023-02-18T14:33:45;97303.41;;;7.42;100.00
55032;BME280;40928;51.076;7.950;2023-02-18T14:47:29;97296.47;;;7.41;100.00
55032;BME280;40928;51.076;7.950;2023-02-18T14:50:02;97298.91;;;7.43;100.00
55032;BME280;40928;51.076;7.950;2023-02-18T14:52:47;97300.34;;;7.45;100.00
55032;BME280;40928;51.076;7.950;2023-02-18T14:55:42;97300.91;;;7.47;100.00
55032;BME280;40928;51.076;7.950;2023-02-18T14:58:30;97307.06;;;7.48;100.00
55032;BME280;40928;51.076;7.950;2023-02-18T15:01:29;97300.53;;;7.44;100.00
55032;BME280;40928;51.076;7.950;2023-02-18T15:03:56;97304.03;;;7.44;100.00
55032;BME280;40928;51.076;7.950;2023-02-18T15:06:34;97308.94;;;7.41;100.00
55032;BME280;40928;51.076;7.950;2023-02-18T15:09:12;97314.03;;;7.42;100.00
55032;BME280;40928;51.076;7.950;2023-02-18T15:11:49;97306.69;;;7.44;100.00
55032;BME280;40928;51.076;7.950;2023-02-18T15:14:24;97304.22;;;7.43;100.00
55032;BME280;40928;51.076;7.950;2023-02-18T15:16:51;97306.03;;;7.49;100.00
55032;BME280;40928;51.076;7.950;2023-02-18T15:19:19;97295.59;;;7.47;100.00
55032;BME280;40928;51.076;7.950;2023-02-18T15:21:49;97309.31;;;7.51;100.00
55032;BME280;40928;51.076;7.950;2023-02-18T15:24:36;97294.78;;;7.54;100.00
55032;BME280;40928;51.076;7.950;2023-02-18T15:27:11;97304.00;;;7.51;100.00
55032;BME280;40928;51.076;7.950;2023-02-18T15:29:37;97301.34;;;7.51;100.00
55032;BME280;40928;51.076;7.950;2023-02-18T15:32:30;97302.56;;;7.49;100.00
55032;BME280;40928;51.076;7.950;2023-02-18T15:35:14;97307.88;;;7.49;100.00
55032;BME280;40928;51.076;7.950;2023-02-18T15:37:44;97302.56;;;7.49;100.00
55032;BME280;40928;51.076;7.950;2023-02-18T15:40:16;97299.69;;;7.50;100.00
55032;BME280;40928;51.076;7.950;2023-02-18T15:42:46;97306.22;;;7.47;100.00
55032;BME280;40928;51.076;7.950;2023-02-18T15:45:19;97309.13;;;7.46;100.00
55032;BME280;40928;51.076;7.950;2023-02-18T15:47:52;97305.66;;;7.45;100.00
55032;BME280;40928;51.076;7.950;2023-02-18T15:50:30;97300.53;;;7.44;100.00
55032;BME280;40928;51.076;7.950;2023-02-18T15:52:59;97303.56;;;7.47;100.00